Date,TemperatureHighF,TemperatureAvgF,TemperatureLowF,DewpointHighF,DewpointAvgF,DewpointLowF,HumidityHigh,HumidityAvg,HumidityLow,PressureMaxIn,PressureMinIn,WindSpeedMaxMPH,WindSpeedAvgMPH,GustSpeedMaxMPH,PrecipitationSumIn
2012-1-1,54,41,28,44,33,24,84,74,44,29.47,29.10,24,5,24,0.02
2012-1-2,37,33,28,21,17,14,61,51,41,29.31,29.22,21,10,21,0.00
2012-1-3,27,24,18,18,12,6,79,61,45,29.59,29.30,25,10,25,0.00
2012-1-4,29,22,12,18,11,4,76,65,55,29.62,29.30,6,2,6,0.00
2012-1-5,47,37,26,26,22,18,73,55,38,29.36,29.26,14,6,14,0.00
2012-1-6,63,47,37,34,28,23,60,48,31,29.28,29.16,12,6,12,0.00
2012-1-7,61,51,41,42,31,24,54,47,40,29.43,29.16,11,6,11,0.00
2012-1-8,48,40,29,30,26,20,71,57,42,29.66,29.43,9,4,9,0.00
2012-1-9,39,32,27,29,24,19,83,75,63,29.66,29.36,7,2,7,0.02
2012-1-10,51,35,26,33,26,20,83,70,48,29.39,29.33,14,4,14,0.01
2012-1-11,37,32,25,32,26,20,84,80,73,29.37,28.92,12,2,12,0.67
2012-1-12,57,46,36,47,39,28,83,76,68,28.90,28.69,15,4,15,0.02
2012-1-13,46,32,26,41,18,11,83,56,44,29.30,28.70,31,13,31,0.16
2012-1-14,34,28,25,16,14,12,63,55,45,29.49,29.30,14,6,14,0.00
2012-1-15,32,26,19,15,13,11,69,59,43,29.88,29.49,10,4,10,0.00
2012-1-16,43,30,15,30,19,9,80,65,46,29.88,29.45,12,4,12,0.01
2012-1-17,62,49,41,46,39,31,81,68,54,29.45,29.03,15,8,15,0.03
2012-1-18,52,34,19,40,19,10,75,54,40,29.52,29.10,21,9,21,0.00
2012-1-19,40,26,14,21,15,8,81,64,44,29.51,29.25,14,4,14,0.00
2012-1-20,35,29,26,25,16,10,79,59,49,29.60,29.29,14,4,14,0.00
2012-1-21,32,29,26,27,24,21,84,82,79,29.63,29.26,8,3,8,0.01
2012-1-22,32,30,27,28,25,21,84,81,77,29.77,29.62,6,3,6,0.03
2012-1-23,48,38,32,42,33,27,84,82,77,29.63,29.18,10,2,10,0.10
2012-1-24,56,44,33,42,34,27,83,68,41,29.55,29.24,13,4,13,0.01
2012-1-25,50,40,28,36,31,23,83,72,58,29.70,29.51,7,2,7,0.00
2012-1-26,47,41,38,39,34,32,82,78,72,29.51,29.07,6,2,6,0.04
2012-1-27,57,45,38,50,34,26,79,66,54,29.36,28.82,26,8,26,0.27
2012-1-28,54,40,30,34,25,9,80,56,30,29.54,29.24,23,7,23,0.00
2012-1-29,45,38,28,29,14,8,80,39,32,29.60,29.38,21,8,21,0.00
2012-1-30,47,36,25,24,18,14,66,49,30,29.72,29.52,12,5,12,0.00
2012-1-31,66,52,41,33,28,25,53,41,24,29.55,29.40,12,6,12,0.00
2012-2-1,64,56,49,47,39,29,77,54,40,29.40,29.34,11,6,11,0.00
2012-2-2,57,48,38,46,36,26,82,66,39,29.69,29.31,17,6,17,0.14
2012-2-3,51,39,32,32,28,23,74,63,47,29.84,29.68,8,3,8,0.00
2012-2-4,41,34,28,33,28,22,84,78,67,29.67,29.46,6,1,6,0.05
2012-2-5,39,34,30,33,28,24,84,81,75,29.57,29.41,9,2,9,0.24
2012-2-6,50,37,27,34,28,22,84,73,48,29.58,29.41,10,4,10,0.02
2012-2-7,54,44,34,33,28,24,81,55,40,29.58,29.42,11,5,11,0.00
2012-2-8,37,33,28,30,27,22,83,78,67,29.59,29.46,9,2,9,0.10
2012-2-9,45,36,30,28,21,17,76,56,33,29.60,29.50,14,5,14,0.00
2012-2-10,42,33,23,29,24,17,82,70,54,29.52,29.25,9,2,9,0.04
2012-2-11,36,29,21,32,20,7,84,70,48,29.33,29.04,26,7,26,0.16
2012-2-12,27,23,19,11,8,5,60,52,45,29.47,29.33,33,13,33,0.00
2012-2-13,47,35,26,18,14,11,60,43,27,29.52,29.40,15,5,15,0.00
2012-2-14,50,40,31,28,25,19,70,54,38,29.42,29.25,6,2,6,0.00
2012-2-15,52,43,37,33,30,27,71,60,43,29.61,29.37,11,3,11,0.10
2012-2-16,47,40,37,42,34,29,82,79,71,29.59,29.33,9,2,9,0.17
2012-2-17,51,44,36,41,30,24,81,61,39,29.46,29.34,14,5,14,0.00
2012-2-18,59,43,28,31,26,21,77,54,27,29.45,29.22,17,6,17,0.00
2012-2-19,41,37,33,25,23,20,64,57,50,29.45,29.24,12,4,12,0.00
2012-2-20,48,37,26,24,20,16,66,52,31,29.66,29.33,11,4,11,0.00
2012-2-21,50,36,20,32,23,13,79,61,43,29.64,29.20,17,6,17,0.00
2012-2-22,60,46,34,37,32,28,80,62,36,29.20,28.93,20,6,20,0.00
2012-2-25,39,35,33,24,16,14,71,45,38,29.62,29.18,30,15,30,0.00
2012-2-26,49,36,28,20,17,14,59,46,29,29.81,29.62,14,4,14,0.00
2012-2-27,64,49,26,32,26,17,69,43,27,29.69,29.47,17,7,17,0.00
2012-2-28,54,45,35,24,22,20,57,42,27,29.81,29.59,14,4,14,0.00
2012-2-29,50,40,36,43,31,22,82,70,44,29.59,29.08,11,3,11,1.06
2012-3-1,63,56,41,40,36,30,64,48,36,29.32,28.99,18,8,18,0.00
2012-3-2,50,40,30,40,33,24,82,76,63,29.37,29.01,13,3,13,0.42
2012-3-3,57,48,41,42,28,16,81,51,21,29.10,28.87,30,8,30,0.02
2012-3-4,43,38,32,26,21,17,68,52,38,29.24,29.05,18,8,18,0.00
2012-3-5,40,32,25,26,20,17,83,63,48,29.80,29.25,14,5,14,0.03
2012-3-6,51,37,22,26,21,15,74,54,35,29.97,29.79,12,4,12,0.00
2012-3-7,67,53,36,41,32,22,57,46,29,29.84,29.64,16,8,16,0.00
2012-3-8,69,62,51,50,46,40,75,58,46,29.65,29.31,17,10,17,0.00
2012-3-9,59,47,38,48,26,18,69,45,28,29.70,29.36,21,10,21,0.00
2012-3-10,48,37,29,18,16,12,56,43,27,29.89,29.71,13,4,13,0.00
2012-3-11,66,45,25,33,26,17,77,49,30,29.83,29.67,10,3,10,0.00
2012-3-12,71,58,46,43,35,29,55,43,28,29.70,29.46,10,4,10,0.00
2012-3-13,78,66,56,54,49,44,79,58,34,29.46,29.34,21,7,21,0.00
2012-3-14,78,66,55,51,47,44,69,52,31,29.55,29.43,7,3,7,0.00
2012-3-15,80,60,47,54,47,39,80,63,30,29.55,29.45,13,4,13,0.01
2012-3-16,68,58,48,58,50,42,82,76,65,29.53,29.46,6,2,6,0.04
2012-3-17,75,60,45,57,50,40,82,71,50,29.63,29.53,8,3,8,0.00
2012-3-18,69,60,48,56,51,42,82,75,63,29.67,29.52,8,3,8,0.00
2012-3-19,76,63,51,58,53,44,81,71,52,29.54,29.45,8,4,8,0.00
2012-3-22,80,67,50,64,56,41,82,68,53,29.58,29.43,8,3,8,0.00
2012-3-23,80,67,52,63,56,47,82,69,49,29.46,29.30,8,3,8,0.00
2012-3-24,70,59,51,58,52,42,81,76,59,29.30,29.20,10,4,10,1.06
2012-3-25,61,52,46,54,45,38,82,77,71,29.22,29.13,8,3,8,0.04
2012-3-26,59,53,40,52,32,13,83,48,27,29.58,29.18,19,8,19,0.01
2012-3-27,56,42,28,25,19,12,64,41,25,29.70,29.49,9,3,9,0.00
2012-3-28,79,59,39,56,42,26,67,54,33,29.49,29.05,22,8,22,0.02
2012-3-29,69,58,45,40,36,31,60,46,32,29.38,29.09,17,7,17,0.00
2012-3-30,59,47,35,44,37,28,79,67,57,29.44,29.15,6,3,6,0.00
2012-3-31,65,54,46,54,46,40,82,74,58,29.24,29.05,15,5,15,0.00
2012-4-1,67,56,46,51,46,41,82,71,54,29.25,28.94,8,3,8,0.10
2012-4-2,64,54,45,49,35,26,81,53,25,29.31,28.94,12,6,12,0.09
2012-4-3,72,54,35,40,34,28,75,49,29,29.39,29.13,8,2,8,0.00
2012-4-4,76,61,49,55,43,24,75,55,25,29.15,28.96,16,4,16,0.00
2012-4-5,60,51,41,35,30,24,65,46,29,29.25,29.13,8,3,8,0.00
2012-4-6,61,48,36,31,24,15,74,41,21,29.47,29.24,13,6,13,0.00
2012-4-7,64,51,35,22,18,13,46,28,17,29.59,29.44,17,6,17,0.00
2012-4-8,69,55,37,36,29,20,56,37,23,29.46,29.21,20,8,20,0.00
2012-4-9,61,55,47,41,31,20,77,43,25,29.30,29.16,26,10,26,0.04
2012-4-10,61,50,36,39,29,22,82,50,22,29.26,29.07,18,8,18,0.02
2012-4-11,48,42,37,34,28,22,67,56,46,29.43,29.25,17,7,17,0.00
2012-4-12,56,47,39,33,30,28,72,54,37,29.54,29.42,15,6,15,0.00
2012-4-13,67,50,35,36,32,28,79,53,28,29.62,29.51,10,2,10,0.00
2012-4-14,74,57,38,45,36,29,74,49,23,29.58,29.41,10,4,10,0.00
2012-4-15,84,69,56,56,51,45,74,53,37,29.44,29.33,10,5,10,0.00
2012-4-16,89,76,62,61,58,49,79,55,35,29.41,29.26,16,6,16,0.00
2012-4-17,76,64,52,53,41,34,59,44,29,29.60,29.37,11,5,11,0.00
2012-4-18,54,51,48,47,43,38,82,75,59,29.62,29.48,3,1,3,0.53
2012-4-19,69,55,46,52,45,40,82,71,47,29.48,29.36,7,2,7,0.01
2012-4-20,72,58,40,56,48,35,83,70,54,29.37,29.16,12,3,12,0.00
2012-4-21,78,62,53,59,52,47,81,73,44,29.18,28.99,16,6,16,0.38
2012-4-22,52,47,42,46,42,37,84,82,79,29.18,28.87,14,5,14,0.69
2012-4-23,45,41,35,38,34,22,84,78,41,28.90,28.75,16,9,16,0.30
2012-4-24,58,49,40,33,26,21,70,41,24,29.08,28.86,20,7,20,0.00
2012-4-25,70,52,32,39,32,27,82,51,21,29.21,29.08,10,3,10,0.00
2012-4-26,72,61,51,60,49,37,75,64,52,29.20,28.95,15,4,15,0.00
2012-4-27,61,53,46,46,32,27,64,46,28,29.54,29.13,16,7,16,0.00
2012-4-28,56,47,39,39,32,23,81,57,36,29.64,29.47,9,2,9,0.07
2012-4-29,72,55,40,47,40,33,83,62,32,29.61,29.46,5,2,5,0.07
2012-4-30,66,55,43,54,41,31,77,61,44,29.65,29.41,11,4,11,0.00
2012-5-1,84,70,57,64,56,48,81,63,37,29.41,29.32,15,5,15,0.12
2012-5-2,80,68,59,68,60,52,81,75,63,29.44,29.35,9,3,9,0.04
2012-5-3,88,66,55,68,57,46,81,73,52,29.52,29.38,7,3,7,0.01
2012-5-4,82,72,62,67,62,56,81,71,49,29.42,29.26,20,4,20,0.01
2012-5-5,77,71,58,67,62,52,82,74,64,29.35,29.24,8,2,8,0.30
2012-5-6,74,66,59,64,58,52,82,77,70,29.42,29.33,8,3,8,0.00
2012-5-7,72,65,58,60,57,51,82,76,64,29.41,29.31,15,6,15,0.00
2012-5-8,70,65,60,64,57,49,82,76,63,29.33,29.14,12,6,12,0.21
2012-5-9,63,61,59,56,53,51,79,75,72,29.16,29.13,6,3,6,0.01
2012-5-16,74,69,64,57,56,56,74,64,54,29.31,29.26,2,1,2,0.00
2012-5-17,72,63,52,55,45,40,71,53,34,29.49,29.32,10,3,10,0.00
2012-5-18,77,60,42,52,45,36,80,58,37,29.55,29.47,8,3,8,0.00
2012-5-19,64,63,61,53,52,52,70,68,66,29.50,29.50,2,1,2,0.00
2012-5-20,81,68,51,58,52,46,81,61,35,29.54,29.45,13,2,13,0.00
2012-5-21,71,64,60,64,58,52,82,79,73,29.45,29.27,10,2,10,0.07
2012-5-22,80,68,61,68,60,52,82,74,63,29.27,29.16,4,0,4,0.05
2012-5-23,78,66,56,67,58,50,82,77,63,29.32,29.22,8,1,8,0.68
2012-5-24,80,67,56,68,59,49,82,75,62,29.44,29.33,9,3,9,0.01
2012-5-25,86,72,57,71,63,50,81,73,58,29.49,29.42,8,2,8,0.00
2012-5-26,90,76,61,74,66,55,82,72,54,29.51,29.44,7,2,7,0.00
2012-5-27,88,77,64,73,67,57,82,72,55,29.51,29.39,15,4,15,0.24
2012-5-28,92,78,62,74,67,55,82,70,48,29.53,29.30,12,4,12,0.19
2012-5-29,90,76,66,73,66,58,81,73,55,29.31,29.11,21,5,21,0.39
2012-5-30,85,73,59,67,59,53,83,64,38,29.21,29.09,8,3,8,0.00
2012-5-31,74,65,58,60,55,49,82,72,42,29.25,29.13,8,2,8,0.00
2012-6-1,80,70,61,69,62,55,82,77,66,29.20,28.98,13,6,13,0.60
2012-6-2,73,63,53,55,48,45,83,60,40,29.22,29.10,13,5,13,0.01
2012-6-3,78,66,52,55,49,45,78,57,35,29.22,29.09,15,5,15,0.00
2012-6-4,72,65,56,56,50,48,75,59,44,29.13,29.04,15,5,15,0.00
2012-6-5,66,61,56,52,51,49,81,70,58,29.31,29.14,7,3,7,0.00
2012-6-6,74,65,55,56,53,49,81,66,50,29.38,29.31,6,2,6,0.00
2012-6-7,79,65,51,60,52,46,83,65,36,29.40,29.31,12,4,12,0.07
2012-6-8,84,71,53,56,53,48,82,56,35,29.40,29.30,9,4,9,0.00
2012-6-9,92,75,60,60,54,50,73,51,30,29.39,29.32,11,4,11,0.00
2012-6-10,90,76,57,64,59,51,80,57,38,29.47,29.39,8,2,8,0.00
2012-6-11,83,72,60,67,61,55,82,69,49,29.49,29.41,12,4,12,0.01
2012-6-12,85,71,63,74,64,57,82,78,67,29.41,29.18,6,3,6,0.96
2012-6-13,78,70,61,62,52,44,83,56,30,29.44,29.25,12,5,12,0.01
2012-6-14,80,68,53,64,56,48,82,67,54,29.56,29.44,10,2,10,0.00
2012-6-15,70,64,57,61,58,52,83,80,73,29.61,29.56,6,3,6,0.00
2012-6-16,80,75,64,59,57,55,73,55,47,29.63,29.54,8,4,8,0.00
2012-6-17,79,69,54,60,56,48,82,64,48,29.55,29.37,12,5,12,0.00
2012-6-18,71,64,60,64,58,55,82,79,69,29.44,29.36,8,4,8,0.65
2012-6-19,91,74,61,76,64,53,82,72,58,29.50,29.44,8,2,8,0.00
2012-6-20,95,80,68,73,68,62,82,67,42,29.53,29.40,8,3,8,0.00
2012-6-21,93,81,69,74,69,63,82,68,44,29.41,29.25,9,3,9,0.00
2012-6-22,91,79,68,72,69,62,82,72,52,29.26,29.15,10,4,10,0.60
2012-6-23,86,76,61,69,60,55,83,61,36,29.40,29.25,13,3,13,0.00
2012-6-24,89,76,60,71,63,55,82,65,44,29.41,29.27,6,2,6,0.00
2012-6-25,81,74,66,67,58,44,82,60,36,29.26,29.13,14,5,14,0.00
2012-6-26,78,67,57,49,47,43,65,49,36,29.30,29.20,15,6,15,0.00
2012-6-27,85,73,60,56,52,47,65,50,34,29.33,29.24,16,6,16,0.00
2012-6-28,94,79,61,66,59,53,75,53,33,29.31,29.14,11,4,11,0.00
2012-6-29,102,87,72,74,69,63,77,58,34,29.18,29.07,11,3,11,0.00
2012-6-30,94,85,74,73,69,66,78,61,44,29.25,29.16,8,2,8,0.00
2012-7-1,95,83,69,72,67,62,82,61,34,29.30,29.20,14,3,14,0.00
2012-7-2,91,80,65,70,64,59,82,61,39,29.38,29.29,13,3,13,0.22
2012-7-3,95,79,67,70,66,61,81,66,41,29.36,29.27,10,3,10,0.00
2012-7-4,98,84,72,72,67,62,81,60,36,29.33,29.20,19,5,19,0.03
2012-7-5,96,85,70,71,66,63,82,56,35,29.28,29.20,12,5,12,0.00
2012-7-6,99,87,74,73,70,66,75,58,41,29.34,29.27,7,2,7,0.00
2012-7-7,102,90,73,75,70,66,82,55,32,29.32,29.22,12,4,12,0.00
2012-7-8,97,84,72,74,70,65,82,66,43,29.28,29.20,13,4,13,0.25
2012-7-9,86,75,67,70,66,60,81,73,57,29.36,29.25,7,2,7,0.57
2012-7-10,89,77,64,69,64,59,82,66,39,29.42,29.34,7,2,7,0.00
2012-7-11,86,77,65,70,65,60,83,67,49,29.52,29.41,9,3,9,0.00
2012-7-12,85,75,62,66,62,56,83,65,40,29.57,29.52,10,2,10,0.00
2012-7-13,82,74,67,66,64,61,82,70,53,29.60,29.54,3,1,3,0.00
2012-7-14,87,76,66,74,67,61,82,75,63,29.58,29.49,12,3,12,0.00
2012-7-15,90,80,72,74,70,66,82,73,52,29.52,29.39,10,4,10,0.02
2012-7-16,94,80,67,73,67,60,82,65,41,29.42,29.25,13,5,13,0.00
2012-7-17,97,85,70,70,67,63,80,58,36,29.32,29.20,8,4,8,0.00
2012-7-18,96,80,73,74,69,65,81,70,46,29.32,29.25,24,4,24,0.16
2012-7-19,94,79,68,72,68,62,82,69,48,29.36,29.23,7,3,7,0.00
2012-7-20,83,74,65,73,65,57,81,76,71,29.34,29.26,6,4,6,0.01
2012-7-21,70,65,60,64,57,50,84,77,69,29.50,29.34,10,4,10,0.59
2012-7-22,86,73,61,73,64,52,83,74,63,29.54,29.47,8,2,8,0.01
2012-7-23,88,78,68,74,69,61,82,74,59,29.50,29.30,8,3,8,0.00
2012-7-24,89,78,72,75,69,66,83,76,61,29.30,29.15,12,6,12,0.21
2012-7-25,88,77,65,67,62,57,83,62,44,29.36,29.22,7,3,7,0.00
2012-7-26,98,82,68,76,69,62,83,68,42,29.22,29.04,14,5,14,0.09
2012-7-27,87,80,73,71,68,65,80,69,59,29.29,29.13,11,4,11,0.01
2012-7-28,89,78,68,70,65,61,83,66,44,29.35,29.25,11,5,11,0.00
2012-7-29,86,77,66,67,63,60,81,64,45,29.41,29.33,11,3,11,0.00
2012-7-30,90,77,62,70,64,56,82,67,47,29.45,29.34,10,3,10,0.00
2012-7-31,88,76,64,71,67,57,83,75,54,29.39,29.25,22,4,22,1.45
2012-8-1,86,75,61,73,65,54,82,73,62,29.31,29.19,14,2,14,0.00
2012-8-2,92,78,64,74,67,57,83,71,53,29.30,29.23,5,2,5,0.00
2012-8-3,90,79,67,76,70,60,82,73,62,29.42,29.29,7,2,7,0.00
2012-8-4,91,80,68,75,70,62,82,71,54,29.51,29.42,13,4,13,0.00
2012-8-5,90,77,72,74,70,64,83,78,59,29.50,29.40,10,4,10,0.26
2012-8-6,88,77,67,73,67,59,83,72,54,29.46,29.37,9,3,9,0.00
2012-8-7,88,77,64,70,66,59,83,70,54,29.40,29.32,6,2,6,0.00
2012-8-8,93,78,67,71,65,61,82,67,39,29.38,29.29,5,2,5,0.00
2012-8-9,91,76,65,72,66,60,83,72,50,29.33,29.20,15,3,15,0.00
2012-8-10,85,75,65,72,66,58,83,74,60,29.22,29.07,10,4,10,0.57
2012-8-11,86,77,70,67,63,59,82,64,47,29.31,29.15,8,3,8,0.00
2012-8-12,82,72,60,64,60,54,83,67,47,29.39,29.31,8,2,8,0.00
2012-8-13,85,73,59,66,61,54,83,68,46,29.43,29.31,8,2,8,0.00
2012-8-14,86,74,66,70,65,59,82,75,56,29.31,29.20,12,3,12,0.10
2012-8-15,79,69,62,68,62,53,83,78,61,29.33,29.23,9,3,9,0.04
2012-8-16,87,72,58,66,59,48,82,65,43,29.39,29.26,12,3,12,0.01
2012-8-17,88,73,61,69,64,55,83,74,47,29.30,29.17,7,2,7,0.01
2012-8-18,81,73,63,64,59,56,82,63,43,29.32,29.24,11,3,11,0.01
2012-8-19,74,68,64,64,60,56,80,74,68,29.34,29.25,10,2,10,0.00
2012-8-20,80,67,61,65,60,54,83,78,57,29.34,29.21,10,2,10,0.95
2012-8-21,81,68,58,65,56,46,83,67,47,29.46,29.35,7,2,7,0.01
2012-8-22,83,68,56,68,60,49,83,77,57,29.53,29.45,12,2,12,0.75
2012-8-23,86,70,57,68,60,51,83,73,47,29.55,29.47,8,2,8,0.02
2012-8-24,84,72,62,69,64,56,83,75,55,29.55,29.49,7,2,7,0.00
2012-8-25,77,70,64,67,62,58,83,77,61,29.57,29.51,11,2,11,0.02
2012-8-26,78,70,64,71,62,52,83,77,65,29.57,29.49,11,4,11,0.64
2012-8-27,88,74,61,72,63,50,83,69,56,29.52,29.33,6,3,6,0.01
2012-8-28,85,77,67,69,64,59,82,66,44,29.36,29.29,11,4,11,0.06
2012-8-29,76,66,60,61,59,55,83,77,59,29.41,29.33,4,1,4,0.00
2012-8-30,86,72,58,67,61,54,84,70,49,29.50,29.41,5,1,5,0.00
2012-8-31,92,77,62,70,64,54,84,66,36,29.50,29.38,12,4,12,0.00
2012-9-1,89,79,71,75,70,64,83,73,59,29.48,29.38,8,4,8,0.02
2012-9-2,82,75,69,73,68,62,83,80,73,29.43,29.33,10,2,10,0.40
2012-9-3,82,74,66,73,66,55,83,76,66,29.41,29.34,9,2,9,0.00
2012-9-4,84,75,67,76,68,57,83,78,69,29.37,29.22,9,2,9,0.63
2012-9-5,91,79,72,75,71,66,84,76,59,29.23,29.16,14,3,14,0.00
2012-9-6,87,76,70,75,69,63,83,78,65,29.29,29.20,10,2,10,0.00
2012-9-7,89,78,67,73,69,61,84,74,58,29.33,29.18,9,4,9,0.00
2012-9-8,83,70,61,71,63,56,84,80,66,29.24,29.01,17,3,17,0.42
2012-9-9,75,64,52,59,52,48,85,68,40,29.35,29.22,11,3,11,0.01
2012-9-10,72,63,53,53,49,46,82,62,41,29.54,29.36,13,4,13,0.00
2012-9-11,76,60,46,52,48,41,84,65,40,29.67,29.54,5,2,5,0.00
2012-9-12,79,64,48,60,53,43,84,69,46,29.71,29.64,7,2,7,0.00
2012-9-13,80,65,51,62,54,47,84,70,49,29.72,29.62,8,2,8,0.00
2012-9-14,82,66,51,63,55,46,85,70,49,29.63,29.48,7,2,7,0.00
2012-9-15,74,66,56,60,52,47,77,61,43,29.61,29.50,12,4,12,0.00
2012-9-16,73,61,50,56,51,45,84,72,55,29.54,29.42,3,1,3,0.00
2012-9-17,75,62,48,63,54,44,85,78,63,29.46,29.29,10,2,10,0.01
2012-9-18,66,63,62,58,54,51,83,73,60,29.29,28.97,10,3,10,2.36
2012-9-19,67,59,50,55,47,41,80,65,40,29.52,29.24,11,4,11,0.01
2012-9-20,73,57,44,57,49,40,85,75,56,29.52,29.39,8,3,8,0.00
2012-9-21,78,64,50,63,56,45,86,75,57,29.42,29.28,9,3,9,0.00
2012-9-22,81,70,59,64,57,45,84,66,46,29.33,29.15,17,6,17,0.00
2012-9-23,65,57,48,46,42,38,75,59,43,29.52,29.33,16,4,16,0.00
2012-9-24,67,56,47,46,43,38,83,65,37,29.59,29.47,14,3,14,0.00
2012-9-25,73,57,41,54,46,36,85,68,41,29.53,29.41,7,3,7,0.00
2012-9-26,81,68,57,65,58,52,84,73,53,29.51,29.41,10,5,10,0.18
2012-9-27,81,68,59,66,60,54,84,77,59,29.53,29.43,8,2,8,0.33
2012-9-28,73,64,58,65,55,47,83,73,63,29.45,29.35,5,2,5,0.14
2012-9-29,66,58,50,51,47,46,84,68,48,29.39,29.28,9,3,9,0.00
2012-9-30,69,56,46,54,48,42,85,77,53,29.29,29.15,9,2,9,0.03
2012-10-1,68,55,43,55,48,39,86,79,61,29.32,29.26,6,2,6,0.01
2012-10-2,62,58,54,56,51,47,84,78,67,29.31,29.24,5,1,5,0.47
2012-10-3,79,67,58,70,57,46,83,72,59,29.48,29.31,4,1,4,0.02
2012-10-4,78,67,59,66,56,48,82,67,47,29.52,29.47,11,3,11,0.02
2012-10-5,77,65,55,61,56,50,84,73,49,29.51,29.30,6,2,6,0.00
2012-10-6,68,59,46,61,50,40,84,74,57,29.42,29.20,21,5,21,0.00
2012-10-7,52,48,43,46,42,38,85,83,77,29.52,29.38,6,2,6,0.09
2012-10-8,46,42,36,42,38,33,87,85,81,29.64,29.52,5,1,5,0.04
2012-10-9,54,44,42,48,40,38,86,85,81,29.57,29.41,2,0,2,0.01
2012-10-10,67,52,40,50,43,36,86,71,47,29.44,29.23,17,4,17,0.00
2012-10-11,61,50,40,40,34,29,77,55,40,29.63,29.45,14,4,14,0.00
2012-10-12,59,47,37,42,37,32,85,68,48,29.75,29.49,15,4,15,0.00
2012-10-13,59,44,30,41,34,25,84,70,50,29.83,29.59,10,3,10,0.00
2012-10-14,73,59,43,57,49,37,82,70,58,29.57,29.25,13,6,13,0.00
2012-10-15,69,63,54,62,54,43,84,73,45,29.25,29.03,15,6,15,0.04
2012-10-16,62,54,42,44,41,36,79,63,44,29.28,29.20,11,4,11,0.00
2012-10-17,66,50,36,49,41,31,86,72,52,29.34,29.23,8,2,8,0.00
2012-10-18,66,54,40,56,47,36,86,79,67,29.25,29.13,16,4,16,0.62
2012-10-19,67,58,52,59,51,43,85,77,64,29.16,28.97,5,2,5,0.19
2012-10-20,61,52,42,46,40,37,85,65,44,29.30,29.04,11,3,11,0.00
2012-10-21,63,50,37,42,38,33,84,64,42,29.49,29.30,11,3,11,0.00
2012-10-22,70,51,36,50,41,31,85,70,48,29.56,29.45,6,1,6,0.00
2012-10-23,79,62,48,59,51,42,84,71,51,29.48,29.38,7,2,7,0.00
2012-10-24,78,63,54,58,53,49,85,72,45,29.49,29.42,4,1,4,0.00
2012-10-25,71,60,49,60,54,44,86,79,67,29.54,29.46,11,4,11,0.00
2012-10-26,68,62,55,59,56,50,85,81,71,29.53,29.40,8,3,8,0.00
2012-10-27,66,60,56,54,53,51,86,76,59,29.40,29.23,9,3,9,0.00
2012-10-28,59,56,48,53,50,43,86,80,73,29.23,29.02,8,5,8,0.17
2012-10-29,48,45,38,44,41,34,87,86,85,29.02,28.19,36,16,36,2.72
2012-10-30,41,39,37,37,35,33,87,86,83,28.80,28.18,24,9,24,0.69
2012-10-31,51,44,36,40,35,33,87,73,57,29.00,28.79,10,4,10,0.00
2012-11-1,50,46,41,36,34,32,72,65,56,29.10,28.99,13,5,13,0.00
2012-11-2,48,42,33,34,30,27,81,63,49,29.28,29.08,21,7,21,0.00
2012-11-3,46,42,40,31,30,28,67,61,55,29.41,29.28,14,8,14,0.00
2012-11-4,49,42,35,32,30,26,72,63,47,29.42,29.35,8,3,8,0.00
2012-11-5,47,38,30,29,26,23,76,63,48,29.50,29.38,11,3,11,0.00
2012-11-6,44,34,26,29,26,20,83,70,56,29.50,29.34,8,2,8,0.00
2012-11-7,41,38,34,29,27,24,73,65,53,29.34,29.23,7,2,7,0.00
2012-11-8,51,42,31,30,22,14,63,46,23,29.44,29.27,20,6,20,0.00
2012-11-9,58,47,38,38,33,29,74,60,46,29.56,29.44,13,4,13,0.00
2012-11-10,64,46,31,43,34,26,85,66,42,29.68,29.55,5,1,5,0.00
2012-11-11,67,50,34,46,37,28,82,63,44,29.77,29.66,8,2,8,0.00
2012-11-12,67,55,43,56,48,35,85,75,63,29.70,29.46,20,6,20,0.30
2012-11-13,48,41,34,43,31,22,85,67,47,29.83,29.56,11,5,11,0.28
2012-11-14,41,34,27,30,25,21,81,72,61,29.88,29.77,10,2,10,0.00
2012-11-15,44,35,28,34,29,23,85,79,68,29.75,29.64,5,1,5,0.00
2012-11-16,52,39,29,35,29,25,87,70,42,29.78,29.63,9,2,9,0.00
2012-11-17,52,36,25,33,26,20,84,69,42,29.93,29.78,7,1,7,0.00
2012-11-18,50,38,29,38,31,24,83,76,63,29.94,29.83,7,2,7,0.00
2012-11-19,50,43,33,39,35,28,83,76,64,29.82,29.58,5,1,5,0.00
2012-11-20,50,39,30,41,33,26,87,81,69,29.57,29.42,4,1,4,0.00
2012-11-21,53,38,28,40,31,24,87,77,57,29.57,29.47,4,1,4,0.00
2012-11-22,55,38,26,39,29,22,86,72,46,29.61,29.45,5,1,5,0.00
2012-11-23,62,44,27,45,32,22,86,64,44,29.45,29.10,21,5,21,0.01
2012-11-24,42,36,34,26,20,18,56,51,45,29.39,29.22,26,12,26,0.00
2012-11-25,43,34,27,23,20,18,72,57,43,29.40,29.24,13,4,13,0.00
2012-11-26,54,37,24,32,25,18,80,64,41,29.52,29.31,6,2,6,0.00
2012-11-27,42,39,35,36,33,30,87,81,64,29.59,29.49,8,2,8,0.25
2012-11-28,45,38,32,33,26,22,83,63,42,29.69,29.57,16,4,16,0.00
2012-11-29,48,35,26,27,23,19,77,62,39,29.78,29.64,8,3,8,0.00
2012-11-30,52,38,26,32,26,19,79,64,43,29.68,29.60,5,2,5,0.00
2012-12-1,52,38,27,38,31,21,83,74,59,29.76,29.64,4,2,4,0.07
2012-12-2,58,44,30,48,38,26,86,78,64,29.70,29.45,10,2,10,0.03
2012-12-3,66,55,45,56,48,40,86,79,70,29.59,29.49,6,2,6,0.00
2012-12-4,71,58,45,54,48,41,86,72,48,29.56,29.35,12,4,12,0.00
2012-12-5,61,51,35,49,35,23,69,55,40,29.65,29.34,19,7,19,0.00
2012-12-6,45,34,24,29,24,18,78,66,53,29.70,29.51,6,2,6,0.00
2012-12-7,52,41,34,42,35,27,84,77,68,29.51,29.29,6,1,6,0.02
2012-12-8,62,48,37,52,42,33,87,81,70,29.36,29.20,5,1,5,0.05
2012-12-9,50,46,43,46,40,37,86,81,77,29.51,29.29,6,2,6,0.46
2012-12-10,59,51,42,54,46,36,86,82,70,29.27,28.93,15,3,15,0.02
2012-12-11,46,41,32,38,31,25,81,68,53,29.56,29.07,16,5,16,0.01
2012-12-12,40,35,30,31,27,25,84,74,61,29.76,29.56,5,1,5,0.00
2012-12-13,44,32,23,31,24,18,86,74,52,29.80,29.66,3,1,3,0.00
2012-12-14,54,34,22,31,24,17,85,67,40,29.66,29.54,10,2,10,0.01
2012-12-15,51,40,28,34,28,22,81,66,46,29.61,29.41,7,2,7,0.00
2012-12-16,46,44,41,40,38,33,86,80,62,29.42,29.18,5,2,5,0.01
2012-12-17,46,42,35,42,38,31,87,86,84,29.18,28.89,7,2,7,0.06
2012-12-18,52,44,36,44,36,28,87,72,60,29.15,28.88,16,6,16,0.01
2012-12-19,53,43,30,38,33,26,84,68,53,29.50,29.13,13,6,13,0.00
2012-12-20,45,39,33,36,33,29,86,78,66,29.51,28.74,12,4,12,0.22
2012-12-21,43,38,36,38,26,21,83,62,54,28.93,28.70,30,13,30,0.20
2012-12-22,40,36,27,24,21,17,65,54,46,29.37,28.93,25,13,25,0.00
2012-12-23,48,33,24,26,20,15,73,60,39,29.37,29.21,12,3,12,0.00
2012-12-24,36,30,24,29,25,19,87,81,71,29.38,29.23,18,2,18,0.01
2012-12-25,42,35,30,36,31,27,87,85,79,29.56,29.24,3,1,3,0.12
2012-12-26,35,31,28,31,27,24,88,86,83,29.55,28.86,10,3,10,0.00
2012-12-27,37,35,32,31,27,24,88,73,64,29.37,28.85,19,8,19,0.04
2012-12-28,40,35,31,27,26,24,78,70,59,29.48,29.35,11,3,11,0.15
2012-12-29,34,33,32,28,27,26,81,79,77,29.33,29.09,8,3,8,0.00